createdAt,value
2023-11-24T00:05:23.089Z,85.29
2023-11-24T00:15:27.013Z,86.37
2023-11-24T00:25:32.521Z,88.68
2023-11-24T00:35:36.489Z,89.75
2023-11-24T00:45:39.446Z,89.75
2023-11-24T00:55:43.370Z,90.36
2023-11-24T01:05:45.863Z,91.73
2023-11-24T01:15:49.744Z,92.74
2023-11-24T01:25:55.662Z,93.13
2023-11-24T01:35:59.822Z,93.59
2023-11-24T01:46:02.442Z,93.55
2023-11-24T01:56:07.680Z,92.33
2023-11-24T02:06:11.725Z,93.91
2023-11-24T02:16:15.678Z,96.31
2023-11-24T02:26:20.075Z,98.57
2023-11-24T02:36:28.586Z,99.52
2023-11-24T02:46:32.501Z,100.00
2023-11-24T02:56:35.195Z,100.00
2023-11-24T03:06:43.374Z,100.00
2023-11-24T03:16:47.066Z,100.00
2023-11-24T03:26:51.512Z,100.00
2023-11-24T03:36:55.133Z,100.00
2023-11-24T03:46:59.065Z,100.00
2023-11-24T03:57:01.624Z,100.00
2023-11-24T04:07:05.646Z,100.00
2023-11-24T04:17:10.723Z,100.00
2023-11-24T04:27:14.694Z,100.00
2023-11-24T04:37:19.307Z,100.00
2023-11-24T04:47:23.198Z,100.00
2023-11-24T04:57:25.723Z,100.00
2023-11-24T05:07:29.553Z,100.00
2023-11-24T05:17:32.556Z,100.00
2023-11-24T05:27:36.477Z,100.00
2023-11-24T05:37:38.997Z,100.00
2023-11-24T05:47:43.169Z,100.00
2023-11-24T05:57:45.761Z,100.00
2023-11-24T06:07:52.516Z,100.00
2023-11-24T06:17:56.726Z,100.00
2023-11-24T06:28:00.725Z,100.00
2023-11-24T06:38:03.289Z,100.00
2023-11-24T06:48:07.666Z,100.00
2023-11-24T06:58:10.640Z,99.47
2023-11-24T07:08:17.754Z,96.97
2023-11-24T07:18:20.984Z,97.14
2023-11-24T07:28:24.851Z,95.85
2023-11-24T07:38:27.909Z,94.65
2023-11-24T07:48:31.783Z,92.38
2023-11-24T07:58:34.358Z,92.06
2023-11-24T08:08:38.213Z,91.56
2023-11-24T08:18:40.857Z,91.98
2023-11-24T08:28:45.785Z,90.84
2023-11-24T08:38:48.365Z,91.91
2023-11-24T08:48:52.454Z,89.29
2023-11-24T08:58:54.981Z,87.08
2023-11-24T09:08:59.485Z,86.78
2023-11-24T09:19:02.449Z,86.29
2023-11-24T09:29:06.356Z,86.18
2023-11-24T09:39:08.891Z,83.28
2023-11-24T09:49:12.838Z,83.48
2023-11-24T09:59:15.407Z,81.03
2023-11-24T10:09:26.348Z,80.22
2023-11-24T10:19:28.990Z,78.17
2023-11-24T10:29:33.387Z,77.45
2023-11-24T10:39:36.912Z,77.04
2023-11-24T10:49:43.658Z,73.26
2023-11-24T10:59:46.544Z,76.01
2023-11-24T11:09:52.562Z,79.73
2023-11-24T11:19:58.616Z,80.39
2023-11-24T11:30:14.671Z,83.09
2023-11-24T11:40:20.767Z,82.14
2023-11-24T11:50:26.047Z,81.20
2023-11-24T12:00:29.895Z,74.30
2023-11-24T12:10:34.806Z,70.34
2023-11-24T12:20:38.564Z,71.20
2023-11-24T12:30:43.673Z,71.25
2023-11-24T12:40:46.562Z,70.67
2023-11-24T12:50:51.352Z,70.06
2023-11-24T13:00:55.522Z,79.76
2023-11-24T13:10:59.490Z,82.23
2023-11-24T13:21:02.059Z,82.02
2023-11-24T13:31:06.148Z,81.13
2023-11-24T13:41:08.785Z,81.30
2023-11-24T13:51:12.819Z,80.88
2023-11-24T14:01:17.529Z,79.48
2023-11-24T14:11:23.421Z,78.89
2023-11-24T14:21:25.972Z,79.88
2023-11-24T14:31:31.591Z,82.11
2023-11-24T14:41:34.218Z,82.98
2023-11-24T14:51:39.651Z,84.17
2023-11-24T15:01:44.385Z,84.56
2023-11-24T15:11:53.194Z,85.11
2023-11-24T15:21:57.103Z,85.62
2023-11-24T15:32:01.245Z,84.53
2023-11-24T15:42:08.073Z,83.02
2023-11-24T15:52:22.269Z,79.76
2023-11-24T16:02:31.091Z,79.98
2023-11-24T16:12:35.052Z,77.81
2023-11-24T16:22:37.632Z,80.42
2023-11-24T16:32:41.766Z,78.76
2023-11-24T16:42:45.049Z,80.79
2023-11-24T16:52:51.605Z,81.64
2023-11-24T17:02:54.173Z,81.79
2023-11-24T17:12:58.381Z,80.42
2023-11-24T17:23:00.973Z,80.99
2023-11-24T17:33:06.391Z,80.24
2023-11-24T17:43:09.159Z,79.59
2023-11-24T17:53:13.024Z,78.99
2023-11-24T18:03:15.603Z,79.18
2023-11-24T18:13:19.597Z,78.46
2023-11-24T18:23:22.162Z,77.92
2023-11-24T18:33:26.830Z,77.04
2023-11-24T18:43:36.731Z,78.70
2023-11-24T18:53:44.170Z,78.32
2023-11-24T19:03:46.775Z,80.95
2023-11-24T19:13:50.694Z,81.46
2023-11-24T19:23:53.739Z,82.83
2023-11-24T19:33:57.825Z,83.28
2023-11-24T19:44:00.545Z,81.93
2023-11-24T19:54:04.426Z,80.15
2023-11-24T20:04:07.957Z,90.18
2023-11-24T20:14:11.954Z,72.63
2023-11-24T20:24:14.445Z,75.67
2023-11-24T20:34:18.366Z,76.26
2023-11-24T20:44:20.883Z,76.25
2023-11-24T20:54:24.786Z,76.48
2023-11-24T21:04:27.414Z,77.76
2023-11-24T21:14:31.991Z,76.79
2023-11-24T21:24:35.000Z,76.49
2023-11-24T21:34:38.895Z,76.76
2023-11-24T21:44:45.276Z,76.66
2023-11-24T21:54:49.939Z,77.81
2023-11-24T22:04:52.449Z,82.58
2023-11-24T22:14:56.302Z,83.25
2023-11-24T22:24:58.839Z,82.93
2023-11-24T22:35:02.949Z,81.50
2023-11-24T22:45:07.337Z,82.63
2023-11-24T22:55:11.655Z,83.82
2023-11-24T23:05:14.213Z,83.45
2023-11-24T23:15:18.150Z,81.35
2023-11-24T23:25:20.702Z,78.92
2023-11-24T23:35:24.596Z,76.85
2023-11-24T23:45:27.130Z,75.94
2023-11-24T23:55:30.979Z,78.67
